Time;durP1;ratioP1;P1;durP2;ratioP2;P2;SDS_P1;SDS_P2;PMS_P1;PMS_P2;Temp;Humidity;BMP_temperature;BMP_pressure;BME280_temperature;BME280_humidity;BME280_pressure;Samples;Min_cycle;Max_cycle;Signal;HPM_P1;HPM_P2
2023/08/18 06:38:16;;;;;;;;;49.00;40.50;;;;;;;;5203763;22;45586;-92
2023/08/18 06:40:45;;;;;;;;;51.25;40.25;;;;;;;;5000695;28;45244;-92
2023/08/18 06:43:10;;;;;;;;;39.75;36.25;;;;;;;;4976617;28;45281;-92
2023/08/18 06:45:35;;;;;;;;;48.00;40.00;;;;;;;;4985831;28;45576;-93
2023/08/18 06:48:01;;;;;;;;;52.25;41.50;;;;;;;;5002238;28;46292;-94
2023/08/18 06:50:49;;;;;;;;;50.25;40.00;;;;;;;;5004459;28;45214;-96
2023/08/18 07:14:45;;;;;;;;;47.33;37.67;;;;;;;;5459548;22;45439;-92
2023/08/18 07:17:10;;;;;;;;;39.50;35.00;;;;;;;;5014716;28;45488;-93
2023/08/18 07:19:36;;;;;;;;;49.00;38.33;;;;;;;;5015494;28;45257;-93
2023/08/18 07:22:03;;;;;;;;;36.67;34.00;;;;;;;;4977448;28;45447;-92
2023/08/18 07:24:29;;;;;;;;;42.67;35.33;;;;;;;;4971333;28;45382;-93
2023/08/18 07:26:54;;;;;;;;;40.00;35.00;;;;;;;;5004781;28;45499;-93
2023/08/18 07:29:20;;;;;;;;;38.33;35.33;;;;;;;;5001941;28;45945;-92
2023/08/18 07:31:45;;;;;;;;;43.33;36.33;;;;;;;;4988325;28;45364;-93
2023/08/18 07:34:10;;;;;;;;;44.00;36.67;;;;;;;;4993800;28;45482;-91
2023/08/18 07:36:35;;;;;;;;;40.75;37.75;;;;;;;;4993241;28;45433;-92
2023/08/18 07:39:03;;;;;;;;;49.25;39.50;;;;;;;;4970240;28;46079;-93
2023/08/18 07:41:31;;;;;;;;;41.75;37.00;;;;;;;;4988092;28;45376;-93
2023/08/18 07:43:56;;;;;;;;;38.00;35.33;;;;;;;;4990181;28;45443;-93
2023/08/18 07:46:21;;;;;;;;;43.25;36.25;;;;;;;;5005194;28;45302;-93
2023/08/18 07:48:47;;;;;;;;;46.25;37.50;;;;;;;;5005840;28;45546;-91
2023/08/18 07:51:12;;;;;;;;;34.33;33.67;;;;;;;;4983693;28;45574;-92
2023/08/18 07:53:37;;;;;;;;;40.00;36.33;;;;;;;;4988708;28;45460;-92
2023/08/18 07:56:03;;;;;;;;;31.00;31.00;;;;;;;;4998120;28;46481;-93
2023/08/18 07:58:28;;;;;;;;;35.67;30.67;;;;;;;;5010295;28;45799;-93
2023/08/18 08:00:56;;;;;;;;;38.67;32.67;;;;;;;;5007875;28;45345;-93
2023/08/18 08:03:22;;;;;;;;;27.33;26.33;;;;;;;;5007636;28;45471;-93
2023/08/18 08:05:47;;;;;;;;;41.33;34.67;;;;;;;;5000582;28;45411;-92
2023/08/18 08:08:12;;;;;;;;;35.00;34.33;;;;;;;;4988024;28;45590;-93
2023/08/18 08:10:37;;;;;;;;;31.33;30.00;;;;;;;;4999820;28;47274;-92
2023/08/18 08:13:03;;;;;;;;;31.67;30.67;;;;;;;;4999729;28;45467;-93
2023/08/18 08:15:28;;;;;;;;;36.33;35.33;;;;;;;;5002361;28;45290;-94
2023/08/18 08:17:53;;;;;;;;;34.33;31.67;;;;;;;;5013834;28;45497;-93
2023/08/18 08:20:18;;;;;;;;;40.67;33.67;;;;;;;;4996589;28;45483;-93
2023/08/18 08:22:46;;;;;;;;;27.67;25.33;;;;;;;;5001714;28;45473;-93
2023/08/18 08:25:12;;;;;;;;;30.33;28.67;;;;;;;;4986309;28;45351;-94
2023/08/18 08:27:38;;;;;;;;;39.33;36.00;;;;;;;;4986159;28;46944;-92
2023/08/18 08:30:04;;;;;;;;;36.67;31.33;;;;;;;;4999408;28;45388;-93
2023/08/18 08:32:29;;;;;;;;;38.33;34.67;;;;;;;;5003484;28;45230;-94
2023/08/18 08:34:54;;;;;;;;;33.00;32.33;;;;;;;;4977004;28;45458;-93
2023/08/18 08:37:20;;;;;;;;;35.00;32.00;;;;;;;;4979823;28;48145;-94
2023/08/18 08:39:45;;;;;;;;;36.00;34.33;;;;;;;;4984795;28;45724;-93
2023/08/18 08:42:10;;;;;;;;;41.67;35.67;;;;;;;;4993171;28;45357;-93
2023/08/18 08:44:36;;;;;;;;;34.33;29.33;;;;;;;;5003379;28;45887;-93
2023/08/18 08:47:01;;;;;;;;;34.67;34.00;;;;;;;;5001723;28;45399;-93
2023/08/18 08:49:30;;;;;;;;;35.33;33.33;;;;;;;;4989897;28;45424;-93
2023/08/18 08:51:59;;;;;;;;;31.00;26.33;;;;;;;;4982883;28;45409;-93
2023/08/18 08:54:26;;;;;;;;;37.00;34.33;;;;;;;;4984329;28;45242;-93
2023/08/18 08:56:52;;;;;;;;;31.00;30.67;;;;;;;;4991196;28;45556;-93
2023/08/18 08:59:18;;;;;;;;;34.33;32.67;;;;;;;;4999854;28;45490;-93
2023/08/18 09:01:43;;;;;;;;;34.00;33.67;;;;;;;;5001951;28;45238;-93
2023/08/18 09:04:09;;;;;;;;;33.00;32.33;;;;;;;;4977253;28;45314;-93
2023/08/18 09:06:34;;;;;;;;;36.00;33.00;;;;;;;;4983505;28;47867;-93
2023/08/18 09:09:00;;;;;;;;;36.00;34.33;;;;;;;;4990554;28;45520;-93
2023/08/18 09:11:41;;;;;;;;;37.33;34.67;;;;;;;;5002073;28;45401;-93
2023/08/18 09:14:07;;;;;;;;;34.00;33.00;;;;;;;;4976446;28;45463;-93
2023/08/18 09:16:32;;;;;;;;;34.00;31.67;;;;;;;;5002571;28;46059;-93
2023/08/18 09:18:57;;;;;;;;;29.67;26.67;;;;;;;;4993493;28;45504;-93
2023/08/18 09:21:23;;;;;;;;;30.67;28.67;;;;;;;;4973097;28;45366;-94
2023/08/18 09:23:53;;;;;;;;;39.00;36.33;;;;;;;;5001022;28;45479;-93
2023/08/18 09:26:19;;;;;;;;;33.00;31.33;;;;;;;;4983333;28;46521;-93
2023/08/18 09:28:44;;;;;;;;;38.00;33.67;;;;;;;;4990361;28;45203;-94
2023/08/18 09:31:09;;;;;;;;;33.00;31.00;;;;;;;;4997980;28;45372;-93
2023/08/18 09:33:34;;;;;;;;;35.00;33.00;;;;;;;;4977728;28;45358;-93
2023/08/18 09:36:00;;;;;;;;;33.33;31.00;;;;;;;;5002211;28;46471;-93
2023/08/18 09:38:25;;;;;;;;;31.33;31.33;;;;;;;;4996989;28;45262;-94
2023/08/18 09:40:54;;;;;;;;;37.33;36.00;;;;;;;;4994235;28;45444;-93
2023/08/18 09:43:19;;;;;;;;;28.67;28.00;;;;;;;;4970842;28;45613;-94
2023/08/18 09:45:45;;;;;;;;;33.67;33.67;;;;;;;;4983667;28;46125;-94
2023/08/18 09:48:10;;;;;;;;;33.00;30.67;;;;;;;;4979142;28;45548;-93
2023/08/18 09:50:37;;;;;;;;;32.67;30.33;;;;;;;;4993771;28;45487;-93
2023/08/18 09:53:04;;;;;;;;;35.00;31.00;;;;;;;;4992756;28;45327;-93
2023/08/18 09:55:43;;;;;;;;;33.33;29.00;;;;;;;;4993647;28;46553;-93
2023/08/18 09:58:15;;;;;;;;;34.67;32.67;;;;;;;;4975823;28;45535;-92
2023/08/18 10:00:43;;;;;;;;;33.33;29.67;;;;;;;;4999837;28;45498;-92
2023/08/18 10:03:13;;;;;;;;;34.00;32.67;;;;;;;;4974754;28;45563;-91
2023/08/18 10:05:39;;;;;;;;;32.67;31.00;;;;;;;;4994270;28;45483;-92
2023/08/18 10:08:04;;;;;;;;;32.00;31.33;;;;;;;;4976978;28;45381;-92
2023/08/18 10:10:30;;;;;;;;;35.67;30.00;;;;;;;;4993406;28;45417;-92
2023/08/18 10:12:56;;;;;;;;;34.33;33.67;;;;;;;;4977633;28;45470;-92
2023/08/18 10:15:22;;;;;;;;;33.67;28.67;;;;;;;;4989031;28;46081;-92
2023/08/18 10:17:47;;;;;;;;;27.33;26.33;;;;;;;;4994737;28;45874;-92
2023/08/18 10:20:12;;;;;;;;;30.00;26.00;;;;;;;;4995070;28;45495;-92
2023/08/18 10:22:38;;;;;;;;;29.00;28.33;;;;;;;;4994730;28;45485;-92
2023/08/18 10:25:07;;;;;;;;;29.33;27.00;;;;;;;;4994671;28;45503;-91
2023/08/18 10:27:35;;;;;;;;;36.00;33.00;;;;;;;;4997242;28;45245;-90
2023/08/18 10:30:10;;;;;;;;;34.67;32.67;;;;;;;;4996418;28;47120;-91
2023/08/18 10:32:35;;;;;;;;;27.00;26.33;;;;;;;;4980975;28;46091;-90
2023/08/18 10:35:21;;;;;;;;;33.33;28.67;;;;;;;;4999435;28;45382;-90
2023/08/18 10:37:49;;;;;;;;;26.33;25.33;;;;;;;;4994198;28;45622;-91
2023/08/18 10:40:24;;;;;;;;;28.00;26.00;;;;;;;;4994962;28;45434;-91
2023/08/18 10:42:50;;;;;;;;;30.33;28.00;;;;;;;;4998925;28;45380;-91
2023/08/18 10:45:23;;;;;;;;;36.00;34.33;;;;;;;;4980806;28;46264;-95
2023/08/18 10:47:49;;;;;;;;;32.33;31.67;;;;;;;;4998689;28;45357;-94
2023/08/18 10:50:14;;;;;;;;;32.67;28.00;;;;;;;;4993317;28;45497;-94
2023/08/18 10:52:40;;;;;;;;;28.33;27.67;;;;;;;;4999986;28;45444;-95
2023/08/18 10:55:06;;;;;;;;;20.33;20.33;;;;;;;;4978828;28;47346;-95
2023/08/18 10:57:54;;;;;;;;;28.33;28.33;;;;;;;;4995668;28;45278;-96
2023/08/18 11:03:34;;;;;;;;;28.67;27.67;;;;;;;;5246736;22;45820;-96
2023/08/18 11:06:28;;;;;;;;;30.00;30.00;;;;;;;;5009466;28;45501;-95
2023/08/18 11:11:29;;;;;;;;;23.00;22.33;;;;;;;;4998357;28;45270;-91
2023/08/18 11:13:54;;;;;;;;;20.67;19.67;;;;;;;;5000356;28;45227;-94
2023/08/18 11:16:31;;;;;;;;;22.00;22.00;;;;;;;;5003486;28;45368;-94
2023/08/18 11:18:59;;;;;;;;;21.00;21.00;;;;;;;;4981359;28;45441;-94
2023/08/18 11:21:34;;;;;;;;;17.33;17.33;;;;;;;;5000391;28;45454;-96
2023/08/18 11:24:00;;;;;;;;;23.00;21.67;;;;;;;;5074072;22;45404;-96
2023/08/18 11:26:25;;;;;;;;;23.67;23.00;;;;;;;;5006039;28;45300;-96
2023/08/18 11:28:50;;;;;;;;;25.33;25.33;;;;;;;;4999416;28;45135;-95
2023/08/18 11:31:31;;;;;;;;;25.67;25.67;;;;;;;;4977659;28;45439;-94
2023/08/18 11:33:58;;;;;;;;;30.67;30.00;;;;;;;;4980064;28;45688;-90
2023/08/18 11:36:32;;;;;;;;;25.33;25.33;;;;;;;;4980308;28;47617;-94
2023/08/18 11:39:06;;;;;;;;;23.33;22.00;;;;;;;;4981574;28;45404;-94
2023/08/18 11:41:41;;;;;;;;;20.67;20.67;;;;;;;;4998854;28;45300;-91
2023/08/18 11:44:08;;;;;;;;;20.67;20.67;;;;;;;;5000626;28;45249;-95
2023/08/18 11:46:34;;;;;;;;;28.00;26.00;;;;;;;;4975170;28;46938;-90
2023/08/18 11:49:02;;;;;;;;;23.00;21.67;;;;;;;;4998887;28;45519;-92
2023/08/18 11:51:27;;;;;;;;;22.67;22.67;;;;;;;;4999359;28;45450;-92
2023/08/18 11:53:56;;;;;;;;;27.33;26.67;;;;;;;;4980901;28;45353;-95
2023/08/18 11:56:26;;;;;;;;;20.67;19.67;;;;;;;;4995920;28;45510;-96
2023/08/18 11:58:51;;;;;;;;;24.33;24.33;;;;;;;;4994282;28;45526;-93
2023/08/18 12:01:51;;;;;;;;;;;;;;;;;;;;;
2023/08/18 12:04:25;;;;;;;;;21.67;21.67;;;;;;;;4989716;28;65570;-95
2023/08/18 12:06:51;;;;;;;;;25.67;25.67;;;;;;;;4994884;28;46186;-94
2023/08/18 12:09:17;;;;;;;;;22.33;21.33;;;;;;;;5002304;28;45558;-95
2023/08/18 12:11:42;;;;;;;;;23.33;22.00;;;;;;;;5002819;28;45432;-90
2023/08/18 12:14:07;;;;;;;;;25.00;20.33;;;;;;;;5004822;28;45502;-93
2023/08/18 12:19:20;;;;;;;;;21.00;21.00;;;;;;;;4790157;22;46045;-95
2023/08/18 12:21:52;;;;;;;;;25.67;25.67;;;;;;;;4971407;28;45334;-96
2023/08/18 12:24:28;;;;;;;;;23.33;22.00;;;;;;;;4983630;28;45480;-91
2023/08/18 12:26:54;;;;;;;;;27.00;26.67;;;;;;;;4990838;28;48019;-93
2023/08/18 12:29:19;;;;;;;;;22.33;22.33;;;;;;;;5007253;28;45438;-91
2023/08/18 12:31:47;;;;;;;;;21.00;19.67;;;;;;;;4983415;28;45530;-93
2023/08/18 12:34:25;;;;;;;;;;;;;;;;;;;;;
2023/08/18 12:36:51;;;;;;;;;20.00;20.00;;;;;;;;5003457;28;75267;-96
2023/08/18 12:39:16;;;;;;;;;19.00;19.00;;;;;;;;4990993;28;45559;-95
2023/08/18 12:41:41;;;;;;;;;18.67;17.00;;;;;;;;5035393;22;45479;-91
2023/08/18 12:44:10;;;;;;;;;17.33;17.33;;;;;;;;5000687;28;45750;-95
2023/08/18 12:46:36;;;;;;;;;24.67;23.67;;;;;;;;4998776;28;48219;-91
2023/08/18 12:49:04;;;;;;;;;27.00;26.00;;;;;;;;4991102;28;45592;-90
2023/08/18 12:51:30;;;;;;;;;20.33;19.00;;;;;;;;4965959;28;45282;-90
2023/08/18 12:53:55;;;;;;;;;17.33;17.33;;;;;;;;4991997;28;45488;-91
2023/08/18 12:56:20;;;;;;;;;20.00;20.00;;;;;;;;4973531;28;46182;-90
2023/08/18 12:58:54;;;;;;;;;28.00;26.67;;;;;;;;4993712;28;45520;-91
2023/08/18 13:01:21;;;;;;;;;20.67;20.67;;;;;;;;4987238;28;45645;-90
2023/08/18 13:03:50;;;;;;;;;17.33;17.33;;;;;;;;4967890;28;45605;-90
2023/08/18 13:06:15;;;;;;;;;17.00;17.00;;;;;;;;4984656;28;47223;-91
2023/08/18 13:08:40;;;;;;;;;18.67;17.67;;;;;;;;5001032;28;45673;-92
2023/08/18 13:11:05;;;;;;;;;22.33;22.33;;;;;;;;4991513;28;45863;-93
2023/08/18 13:13:31;;;;;;;;;17.33;16.00;;;;;;;;4995909;28;45207;-93
2023/08/18 13:15:56;;;;;;;;;21.33;21.33;;;;;;;;4996824;28;45367;-93
2023/08/18 13:18:21;;;;;;;;;22.67;22.00;;;;;;;;5004748;28;45126;-96
2023/08/18 13:20:49;;;;;;;;;21.33;21.33;;;;;;;;5003194;28;45201;-95
2023/08/18 13:23:14;;;;;;;;;19.33;19.33;;;;;;;;4982582;28;46243;-95
2023/08/18 13:25:39;;;;;;;;;16.00;15.67;;;;;;;;5006662;28;45563;-95
2023/08/18 13:28:06;;;;;;;;;17.33;17.33;;;;;;;;4979567;28;45644;-96
2023/08/18 13:30:46;;;;;;;;;20.67;19.67;;;;;;;;4969643;28;45545;-95
2023/08/18 13:33:58;;;;;;;;;28.00;27.00;;;;;;;;4978219;28;45644;-96
2023/08/18 13:39:35;;;;;;;;;33.25;32.25;;;;;;;;5001295;28;45459;-95
2023/08/18 13:42:22;;;;;;;;;31.33;31.00;;;;;;;;4983593;28;45490;-96
2023/08/18 13:45:21;;;;;;;;;;;;;;;;;;;;;
2023/08/18 13:48:17;;;;;;;;;;;;;;;;;;;;;
2023/08/18 13:51:01;;;;;;;;;;;;;;;;;;;;;
2023/08/18 13:56:48;;;;;;;;;;;;;;;;;;;;;
2023/08/18 13:59:16;;;;;;;;;24.00;24.00;;;;;;;;4984220;28;73660;-94
2023/08/18 14:01:49;;;;;;;;;32.67;30.33;;;;;;;;4971867;28;45414;-94
2023/08/18 14:04:24;;;;;;;;;;;;;;;;;;;;;
2023/08/18 14:06:50;;;;;;;;;31.67;31.33;;;;;;;;4997920;28;65724;-94
2023/08/18 14:09:17;;;;;;;;;30.00;26.67;;;;;;;;4980164;28;46578;-94
2023/08/18 14:11:43;;;;;;;;;28.67;28.67;;;;;;;;4983244;28;45384;-93
2023/08/18 14:14:08;;;;;;;;;24.00;24.00;;;;;;;;4976396;28;45457;-94
2023/08/18 14:16:33;;;;;;;;;24.00;24.00;;;;;;;;4980199;28;45379;-94
2023/08/18 14:18:58;;;;;;;;;27.33;26.67;;;;;;;;5000888;28;45540;-94
2023/08/18 14:21:25;;;;;;;;;22.67;21.67;;;;;;;;4980107;28;45906;-94
2023/08/18 14:23:57;;;;;;;;;31.33;30.00;;;;;;;;4980038;28;45421;-95
2023/08/18 14:26:23;;;;;;;;;25.67;25.33;;;;;;;;4981140;28;45389;-96
2023/08/18 14:28:48;;;;;;;;;26.67;23.33;;;;;;;;4995950;28;45492;-96
2023/08/18 14:31:13;;;;;;;;;26.67;26.00;;;;;;;;4989874;28;45507;-95
2023/08/18 14:33:38;;;;;;;;;24.67;21.67;;;;;;;;4994120;28;45289;-95
2023/08/18 14:36:07;;;;;;;;;25.33;23.67;;;;;;;;4974578;28;45369;-95
2023/08/18 14:38:32;;;;;;;;;29.33;29.00;;;;;;;;4982271;28;48015;-94
2023/08/18 14:41:05;;;;;;;;;28.00;28.00;;;;;;;;4997655;28;45332;-94
2023/08/18 14:43:33;;;;;;;;;27.67;27.67;;;;;;;;4971674;28;45438;-94
2023/08/18 14:45:58;;;;;;;;;37.67;30.67;;;;;;;;4989069;28;45730;-95
2023/08/18 14:48:24;;;;;;;;;28.00;27.67;;;;;;;;4966529;28;47209;-94
2023/08/18 14:50:49;;;;;;;;;22.67;21.67;;;;;;;;4981352;28;45268;-95
2023/08/18 14:53:17;;;;;;;;;25.00;24.33;;;;;;;;4986875;28;45392;-94
2023/08/18 14:55:42;;;;;;;;;31.33;27.33;;;;;;;;4973896;28;46506;-95
2023/08/18 14:58:08;;;;;;;;;29.00;27.00;;;;;;;;4988559;28;45472;-94
2023/08/18 15:00:36;;;;;;;;;26.67;26.67;;;;;;;;4978544;28;45606;-94
2023/08/18 15:03:02;;;;;;;;;29.33;28.33;;;;;;;;5003096;28;45392;-94
2023/08/18 15:05:27;;;;;;;;;24.00;24.00;;;;;;;;4968381;28;45473;-94
2023/08/18 15:07:52;;;;;;;;;26.67;25.67;;;;;;;;4997176;28;45435;-94
2023/08/18 15:10:18;;;;;;;;;31.67;26.33;;;;;;;;4973278;28;45655;-95
2023/08/18 15:12:43;;;;;;;;;19.33;19.00;;;;;;;;4974391;28;45324;-96
2023/08/18 15:15:09;;;;;;;;;20.33;20.33;;;;;;;;4972173;28;45260;-94
2023/08/18 15:17:34;;;;;;;;;18.67;18.67;;;;;;;;4997073;28;47339;-94
2023/08/18 15:19:59;;;;;;;;;24.00;22.00;;;;;;;;4998946;28;45333;-95
2023/08/18 15:22:25;;;;;;;;;26.67;23.67;;;;;;;;4990056;28;45230;-94
2023/08/18 15:24:51;;;;;;;;;29.00;27.33;;;;;;;;5000870;28;45251;-94
2023/08/18 15:27:16;;;;;;;;;27.67;26.33;;;;;;;;4979467;28;48172;-94
2023/08/18 15:29:41;;;;;;;;;27.67;25.33;;;;;;;;4974720;28;45587;-95
2023/08/18 15:32:07;;;;;;;;;23.00;23.00;;;;;;;;4997717;28;45436;-95
2023/08/18 15:34:32;;;;;;;;;23.00;22.00;;;;;;;;4976748;28;45390;-94
2023/08/18 15:36:59;;;;;;;;;29.00;28.33;;;;;;;;4986703;28;47100;-93
2023/08/18 15:39:25;;;;;;;;;22.00;22.00;;;;;;;;4989178;28;47271;-94
2023/08/18 15:41:50;;;;;;;;;25.00;25.00;;;;;;;;4986724;28;45761;-91
2023/08/18 15:47:19;;;;;;;;;23.67;20.67;;;;;;;;5000038;28;45458;-94
2023/08/18 15:49:44;;;;;;;;;30.33;26.67;;;;;;;;5001472;28;45376;-92
2023/08/18 15:52:09;;;;;;;;;28.33;26.33;;;;;;;;4968660;28;45424;-92
2023/08/18 15:54:34;;;;;;;;;23.33;21.00;;;;;;;;4994973;28;45385;-91
2023/08/18 15:57:00;;;;;;;;;24.33;24.33;;;;;;;;4989127;28;46591;-91
2023/08/18 15:59:27;;;;;;;;;25.00;22.00;;;;;;;;4991423;28;45326;-92
2023/08/18 16:01:52;;;;;;;;;26.33;24.00;;;;;;;;4983569;28;45507;-92
2023/08/18 16:04:21;;;;;;;;;26.67;26.00;;;;;;;;5004632;28;45316;-92
2023/08/18 16:06:46;;;;;;;;;21.00;21.00;;;;;;;;4995348;28;46202;-92
2023/08/18 16:09:11;;;;;;;;;26.00;25.33;;;;;;;;4980352;28;45510;-91
2023/08/18 16:11:36;;;;;;;;;24.33;24.00;;;;;;;;5008631;28;45206;-92
2023/08/18 16:14:02;;;;;;;;;29.67;29.67;;;;;;;;4987280;28;45233;-92
2023/08/18 16:16:28;;;;;;;;;22.67;22.67;;;;;;;;5003832;28;45424;-92
2023/08/18 16:18:53;;;;;;;;;20.67;20.67;;;;;;;;4984221;28;45306;-92
2023/08/18 16:21:18;;;;;;;;;25.67;24.00;;;;;;;;5000688;28;45230;-92
2023/08/18 16:23:43;;;;;;;;;26.00;26.00;;;;;;;;4999079;28;45218;-92
2023/08/18 16:26:08;;;;;;;;;22.33;21.33;;;;;;;;5003253;28;45505;-92
2023/08/18 16:28:34;;;;;;;;;28.67;27.33;;;;;;;;4984384;28;45578;-93
2023/08/18 16:30:59;;;;;;;;;27.00;25.00;;;;;;;;4982615;28;45349;-92
2023/08/18 16:33:30;;;;;;;;;29.33;29.00;;;;;;;;4993017;28;45652;-92
2023/08/18 16:35:56;;;;;;;;;30.00;28.33;;;;;;;;4984090;28;46408;-92
2023/08/18 16:38:21;;;;;;;;;24.00;24.00;;;;;;;;4993441;28;45198;-92
2023/08/18 16:40:49;;;;;;;;;29.33;25.67;;;;;;;;4992714;28;45343;-92
2023/08/18 16:43:14;;;;;;;;;30.67;30.67;;;;;;;;4978883;28;45483;-92
2023/08/18 16:45:43;;;;;;;;;23.33;23.33;;;;;;;;4991506;28;46587;-92
2023/08/18 16:48:08;;;;;;;;;23.67;23.67;;;;;;;;4993946;28;45373;-93
2023/08/18 16:50:33;;;;;;;;;22.67;22.33;;;;;;;;4985219;28;45404;-93
2023/08/18 16:52:58;;;;;;;;;21.67;21.67;;;;;;;;5002974;28;45509;-92
2023/08/18 16:55:24;;;;;;;;;21.67;21.67;;;;;;;;5000335;28;46063;-92
2023/08/18 16:57:49;;;;;;;;;21.67;21.67;;;;;;;;4991189;28;45598;-91
2023/08/18 17:00:16;;;;;;;;;25.00;23.33;;;;;;;;4989599;28;45207;-92
2023/08/18 17:02:41;;;;;;;;;22.33;21.00;;;;;;;;4985184;28;45244;-92
2023/08/18 17:05:07;;;;;;;;;25.33;24.67;;;;;;;;4976529;28;46988;-92
2023/08/18 17:07:32;;;;;;;;;25.00;23.67;;;;;;;;4993963;28;45448;-92
2023/08/18 17:09:57;;;;;;;;;20.67;20.67;;;;;;;;4997986;28;45370;-92
2023/08/18 17:12:35;;;;;;;;;;;;;;;;;;;;;
2023/08/18 17:15:13;;;;;;;;;;;;;;;;;;;;;
2023/08/18 17:17:58;;;;;;;;;;;;;;;;;;;;;
2023/08/18 17:20:29;;;;;;;;;26.33;26.33;;;;;;;;4994233;28;68484;-92
2023/08/18 17:22:54;;;;;;;;;26.00;24.00;;;;;;;;4973919;28;45448;-93
2023/08/18 17:25:37;;;;;;;;;23.67;21.67;;;;;;;;4995694;28;46137;-92
2023/08/18 17:28:13;;;;;;;;;25.33;25.33;;;;;;;;4977255;28;45452;-92
2023/08/18 17:30:46;;;;;;;;;16.33;16.33;;;;;;;;5001943;28;45234;-92
2023/08/18 17:33:34;;;;;;;;;23.00;22.33;;;;;;;;4985020;28;45191;-92
2023/08/18 17:36:02;;;;;;;;;27.33;25.67;;;;;;;;5001572;28;46464;-92
2023/08/18 17:38:30;;;;;;;;;20.33;20.33;;;;;;;;4992611;28;45367;-93
2023/08/18 17:40:58;;;;;;;;;20.67;19.67;;;;;;;;4996531;28;45395;-92
2023/08/18 17:43:41;;;;;;;;;24.67;24.67;;;;;;;;5010475;28;45406;-92
2023/08/18 17:46:06;;;;;;;;;22.00;22.00;;;;;;;;5000617;28;45265;-92
2023/08/18 17:48:41;;;;;;;;;17.67;17.67;;;;;;;;4972264;28;45184;-92
2023/08/18 17:51:08;;;;;;;;;16.67;16.67;;;;;;;;4999528;28;45219;-92
2023/08/18 17:53:36;;;;;;;;;25.33;24.00;;;;;;;;5001858;28;45374;-92
2023/08/18 18:06:34;;;;;;;;;17.33;17.33;;;;;;;;4835575;29;45522;-95
2023/08/18 18:42:36;;;;;;;;;24.00;23.00;;;;;;;;5573537;22;45779;-93
2023/08/18 18:45:01;;;;;;;;;20.00;19.00;;;;;;;;5011378;28;45503;-91
2023/08/18 18:47:29;;;;;;;;;20.33;20.33;;;;;;;;5014102;28;45378;-92
2023/08/18 18:49:54;;;;;;;;;22.67;22.67;;;;;;;;5013418;28;45391;-91
2023/08/18 18:52:21;;;;;;;;;25.67;24.67;;;;;;;;5009703;28;45387;-91
2023/08/18 18:54:46;;;;;;;;;24.33;24.33;;;;;;;;4989184;28;45297;-91
2023/08/18 18:57:13;;;;;;;;;24.67;24.67;;;;;;;;4991790;28;45378;-91
2023/08/18 18:59:38;;;;;;;;;23.33;22.00;;;;;;;;4986642;28;47371;-93
